sensor_id;sensor_type;location;lat;lon;timestamp;P1;durP1;ratioP1;P2;durP2;ratioP2
4055;SDS011;2043;52.184;8.690;2023-03-14T00:01:08;7.40;;;2.43;;
4055;SDS011;2043;52.184;8.690;2023-03-14T00:03:37;11.13;;;2.50;;
4055;SDS011;2043;52.184;8.690;2023-03-14T00:06:04;7.60;;;2.90;;
4055;SDS011;2043;52.184;8.690;2023-03-14T00:08:32;7.57;;;2.73;;
4055;SDS011;2043;52.184;8.690;2023-03-14T00:11:13;8.10;;;2.53;;
4055;SDS011;2043;52.184;8.690;2023-03-14T00:13:46;6.20;;;2.50;;
4055;SDS011;2043;52.184;8.690;2023-03-14T00:16:14;5.93;;;2.40;;
4055;SDS011;2043;52.184;8.690;2023-03-14T00:18:41;5.53;;;2.33;;
4055;SDS011;2043;52.184;8.690;2023-03-14T00:21:08;8.17;;;2.60;;
4055;SDS011;2043;52.184;8.690;2023-03-14T00:23:37;7.57;;;2.33;;
4055;SDS011;2043;52.184;8.690;2023-03-14T00:26:06;7.97;;;2.27;;
4055;SDS011;2043;52.184;8.690;2023-03-14T00:28:40;12.90;;;2.70;;
4055;SDS011;2043;52.184;8.690;2023-03-14T00:31:08;13.00;;;2.27;;
4055;SDS011;2043;52.184;8.690;2023-03-14T00:33:37;7.47;;;2.50;;
4055;SDS011;2043;52.184;8.690;2023-03-14T00:36:05;6.03;;;2.43;;
4055;SDS011;2043;52.184;8.690;2023-03-14T00:38:35;9.77;;;2.40;;
4055;SDS011;2043;52.184;8.690;2023-03-14T00:41:03;4.27;;;2.27;;
4055;SDS011;2043;52.184;8.690;2023-03-14T00:43:31;7.70;;;2.83;;
4055;SDS011;2043;52.184;8.690;2023-03-14T00:45:57;8.70;;;2.90;;
4055;SDS011;2043;52.184;8.690;2023-03-14T00:48:24;6.40;;;2.60;;
4055;SDS011;2043;52.184;8.690;2023-03-14T00:50:51;11.93;;;3.10;;
4055;SDS011;2043;52.184;8.690;2023-03-14T00:53:18;9.43;;;2.60;;
4055;SDS011;2043;52.184;8.690;2023-03-14T00:55:45;7.13;;;2.57;;
4055;SDS011;2043;52.184;8.690;2023-03-14T00:58:13;6.03;;;2.40;;
4055;SDS011;2043;52.184;8.690;2023-03-14T01:00:41;11.57;;;2.60;;
4055;SDS011;2043;52.184;8.690;2023-03-14T01:03:08;8.93;;;2.87;;
4055;SDS011;2043;52.184;8.690;2023-03-14T01:05:37;10.73;;;2.40;;
4055;SDS011;2043;52.184;8.690;2023-03-14T01:08:04;7.63;;;2.90;;
4055;SDS011;2043;52.184;8.690;2023-03-14T01:10:32;6.10;;;2.20;;
4055;SDS011;2043;52.184;8.690;2023-03-14T01:13:00;9.73;;;2.80;;
4055;SDS011;2043;52.184;8.690;2023-03-14T01:15:26;5.63;;;2.03;;
4055;SDS011;2043;52.184;8.690;2023-03-14T01:17:53;7.03;;;2.10;;
4055;SDS011;2043;52.184;8.690;2023-03-14T01:20:20;6.17;;;2.67;;
4055;SDS011;2043;52.184;8.690;2023-03-14T01:22:47;6.17;;;2.10;;
4055;SDS011;2043;52.184;8.690;2023-03-14T01:25:14;6.37;;;2.67;;
4055;SDS011;2043;52.184;8.690;2023-03-14T01:27:42;14.97;;;2.40;;
4055;SDS011;2043;52.184;8.690;2023-03-14T01:30:09;5.57;;;2.00;;
4055;SDS011;2043;52.184;8.690;2023-03-14T01:32:37;9.63;;;2.77;;
4055;SDS011;2043;52.184;8.690;2023-03-14T01:35:04;6.90;;;2.23;;
4055;SDS011;2043;52.184;8.690;2023-03-14T01:37:31;5.10;;;2.00;;
4055;SDS011;2043;52.184;8.690;2023-03-14T01:39:58;7.30;;;2.30;;
4055;SDS011;2043;52.184;8.690;2023-03-14T01:42:25;12.90;;;2.60;;
4055;SDS011;2043;52.184;8.690;2023-03-14T01:44:53;8.60;;;2.37;;
4055;SDS011;2043;52.184;8.690;2023-03-14T01:47:22;9.27;;;2.37;;
4055;SDS011;2043;52.184;8.690;2023-03-14T01:55:07;12.47;;;2.53;;
4055;SDS011;2043;52.184;8.690;2023-03-14T01:57:42;9.33;;;2.47;;
4055;SDS011;2043;52.184;8.690;2023-03-14T02:00:22;9.33;;;2.13;;
4055;SDS011;2043;52.184;8.690;2023-03-14T02:02:50;8.30;;;2.50;;
4055;SDS011;2043;52.184;8.690;2023-03-14T02:05:23;8.70;;;2.20;;
4055;SDS011;2043;52.184;8.690;2023-03-14T02:07:56;12.63;;;2.90;;
4055;SDS011;2043;52.184;8.690;2023-03-14T02:10:27;7.10;;;2.17;;
4055;SDS011;2043;52.184;8.690;2023-03-14T02:12:59;9.00;;;2.43;;
4055;SDS011;2043;52.184;8.690;2023-03-14T02:15:29;7.20;;;2.30;;
4055;SDS011;2043;52.184;8.690;2023-03-14T02:17:56;8.13;;;2.47;;
4055;SDS011;2043;52.184;8.690;2023-03-14T02:23:04;8.63;;;2.80;;
4055;SDS011;2043;52.184;8.690;2023-03-14T02:25:43;11.00;;;2.83;;
4055;SDS011;2043;52.184;8.690;2023-03-14T02:28:17;8.80;;;2.07;;
4055;SDS011;2043;52.184;8.690;2023-03-14T02:30:44;12.43;;;2.40;;
4055;SDS011;2043;52.184;8.690;2023-03-14T02:33:16;7.40;;;2.47;;
4055;SDS011;2043;52.184;8.690;2023-03-14T02:38:27;7.30;;;2.20;;
4055;SDS011;2043;52.184;8.690;2023-03-14T02:40:55;7.00;;;1.73;;
4055;SDS011;2043;52.184;8.690;2023-03-14T02:43:22;6.20;;;1.70;;
4055;SDS011;2043;52.184;8.690;2023-03-14T02:45:49;9.87;;;2.17;;
4055;SDS011;2043;52.184;8.690;2023-03-14T02:48:19;7.57;;;1.80;;
4055;SDS011;2043;52.184;8.690;2023-03-14T02:50:58;3.97;;;1.40;;
4055;SDS011;2043;52.184;8.690;2023-03-14T02:53:30;4.07;;;1.53;;
4055;SDS011;2043;52.184;8.690;2023-03-14T02:55:59;6.13;;;1.57;;
4055;SDS011;2043;52.184;8.690;2023-03-14T03:01:01;4.27;;;1.43;;
4055;SDS011;2043;52.184;8.690;2023-03-14T03:03:27;6.63;;;1.63;;
4055;SDS011;2043;52.184;8.690;2023-03-14T03:05:55;5.77;;;1.37;;
4055;SDS011;2043;52.184;8.690;2023-03-14T03:08:23;4.03;;;1.37;;
4055;SDS011;2043;52.184;8.690;2023-03-14T03:10:52;5.80;;;1.50;;
4055;SDS011;2043;52.184;8.690;2023-03-14T03:13:19;3.30;;;1.30;;
4055;SDS011;2043;52.184;8.690;2023-03-14T03:15:46;4.57;;;1.20;;
4055;SDS011;2043;52.184;8.690;2023-03-14T03:18:13;7.33;;;1.40;;
4055;SDS011;2043;52.184;8.690;2023-03-14T03:20:40;2.47;;;1.20;;
4055;SDS011;2043;52.184;8.690;2023-03-14T03:23:06;3.10;;;1.20;;
4055;SDS011;2043;52.184;8.690;2023-03-14T03:25:33;4.03;;;1.30;;
4055;SDS011;2043;52.184;8.690;2023-03-14T03:28:00;2.93;;;1.20;;
4055;SDS011;2043;52.184;8.690;2023-03-14T03:30:28;5.43;;;1.60;;
4055;SDS011;2043;52.184;8.690;2023-03-14T03:32:54;5.80;;;1.63;;
4055;SDS011;2043;52.184;8.690;2023-03-14T03:35:21;6.67;;;1.70;;
4055;SDS011;2043;52.184;8.690;2023-03-14T03:37:48;3.70;;;1.50;;
4055;SDS011;2043;52.184;8.690;2023-03-14T03:40:15;6.03;;;2.07;;
4055;SDS011;2043;52.184;8.690;2023-03-14T03:42:42;6.33;;;2.13;;
4055;SDS011;2043;52.184;8.690;2023-03-14T03:45:08;5.83;;;2.00;;
4055;SDS011;2043;52.184;8.690;2023-03-14T03:47:35;8.53;;;2.40;;
4055;SDS011;2043;52.184;8.690;2023-03-14T03:50:02;5.33;;;2.00;;
4055;SDS011;2043;52.184;8.690;2023-03-14T03:52:29;5.50;;;1.70;;
4055;SDS011;2043;52.184;8.690;2023-03-14T03:54:56;5.10;;;1.90;;
4055;SDS011;2043;52.184;8.690;2023-03-14T03:57:23;6.33;;;1.83;;
4055;SDS011;2043;52.184;8.690;2023-03-14T03:59:49;6.60;;;2.17;;
4055;SDS011;2043;52.184;8.690;2023-03-14T04:02:16;10.40;;;2.63;;
4055;SDS011;2043;52.184;8.690;2023-03-14T04:04:43;6.03;;;1.83;;
4055;SDS011;2043;52.184;8.690;2023-03-14T04:07:10;6.07;;;2.03;;
4055;SDS011;2043;52.184;8.690;2023-03-14T04:09:39;7.70;;;1.93;;
4055;SDS011;2043;52.184;8.690;2023-03-14T04:12:06;6.30;;;2.33;;
4055;SDS011;2043;52.184;8.690;2023-03-14T04:14:33;5.80;;;1.60;;
4055;SDS011;2043;52.184;8.690;2023-03-14T04:16:59;6.50;;;1.93;;
4055;SDS011;2043;52.184;8.690;2023-03-14T04:19:26;8.20;;;1.80;;
4055;SDS011;2043;52.184;8.690;2023-03-14T04:21:53;7.87;;;1.47;;
4055;SDS011;2043;52.184;8.690;2023-03-14T04:24:20;5.60;;;1.80;;
4055;SDS011;2043;52.184;8.690;2023-03-14T04:26:47;5.87;;;1.50;;
4055;SDS011;2043;52.184;8.690;2023-03-14T04:29:13;11.60;;;2.00;;
4055;SDS011;2043;52.184;8.690;2023-03-14T04:31:40;4.57;;;1.87;;
4055;SDS011;2043;52.184;8.690;2023-03-14T04:34:07;5.63;;;1.90;;
4055;SDS011;2043;52.184;8.690;2023-03-14T04:36:34;6.00;;;1.80;;
4055;SDS011;2043;52.184;8.690;2023-03-14T04:39:04;9.23;;;2.27;;
4055;SDS011;2043;52.184;8.690;2023-03-14T04:41:31;8.57;;;2.33;;
4055;SDS011;2043;52.184;8.690;2023-03-14T04:43:58;6.70;;;2.20;;
4055;SDS011;2043;52.184;8.690;2023-03-14T04:46:25;8.97;;;2.40;;
4055;SDS011;2043;52.184;8.690;2023-03-14T04:48:51;4.53;;;1.87;;
4055;SDS011;2043;52.184;8.690;2023-03-14T04:51:18;6.27;;;1.87;;
4055;SDS011;2043;52.184;8.690;2023-03-14T04:53:45;6.23;;;2.50;;
4055;SDS011;2043;52.184;8.690;2023-03-14T04:56:12;11.20;;;2.33;;
4055;SDS011;2043;52.184;8.690;2023-03-14T04:58:39;8.10;;;2.03;;
4055;SDS011;2043;52.184;8.690;2023-03-14T05:01:06;10.30;;;2.77;;
4055;SDS011;2043;52.184;8.690;2023-03-14T05:03:33;9.60;;;2.10;;
4055;SDS011;2043;52.184;8.690;2023-03-14T05:06:02;9.00;;;2.30;;
4055;SDS011;2043;52.184;8.690;2023-03-14T05:08:29;10.93;;;2.30;;
4055;SDS011;2043;52.184;8.690;2023-03-14T05:10:56;10.60;;;2.67;;
4055;SDS011;2043;52.184;8.690;2023-03-14T05:13:24;8.67;;;2.40;;
4055;SDS011;2043;52.184;8.690;2023-03-14T05:15:50;11.33;;;2.30;;
4055;SDS011;2043;52.184;8.690;2023-03-14T05:18:18;15.97;;;2.30;;
4055;SDS011;2043;52.184;8.690;2023-03-14T05:20:44;8.80;;;2.23;;
4055;SDS011;2043;52.184;8.690;2023-03-14T05:23:11;10.17;;;2.53;;
4055;SDS011;2043;52.184;8.690;2023-03-14T05:25:38;10.63;;;2.33;;
4055;SDS011;2043;52.184;8.690;2023-03-14T05:28:05;9.90;;;2.50;;
4055;SDS011;2043;52.184;8.690;2023-03-14T05:30:32;7.93;;;2.50;;
4055;SDS011;2043;52.184;8.690;2023-03-14T05:32:59;9.60;;;2.00;;
4055;SDS011;2043;52.184;8.690;2023-03-14T05:35:26;11.23;;;2.67;;
4055;SDS011;2043;52.184;8.690;2023-03-14T05:37:53;9.10;;;2.53;;
4055;SDS011;2043;52.184;8.690;2023-03-14T05:40:20;12.60;;;2.80;;
4055;SDS011;2043;52.184;8.690;2023-03-14T05:42:47;8.50;;;2.43;;
4055;SDS011;2043;52.184;8.690;2023-03-14T05:45:13;10.57;;;3.00;;
4055;SDS011;2043;52.184;8.690;2023-03-14T05:47:40;11.17;;;2.60;;
4055;SDS011;2043;52.184;8.690;2023-03-14T05:50:07;10.53;;;2.20;;
4055;SDS011;2043;52.184;8.690;2023-03-14T05:52:34;15.63;;;2.73;;
4055;SDS011;2043;52.184;8.690;2023-03-14T05:55:02;10.17;;;2.80;;
4055;SDS011;2043;52.184;8.690;2023-03-14T05:57:29;8.30;;;2.23;;
4055;SDS011;2043;52.184;8.690;2023-03-14T05:59:56;6.43;;;2.00;;
4055;SDS011;2043;52.184;8.690;2023-03-14T06:02:22;13.50;;;2.33;;
4055;SDS011;2043;52.184;8.690;2023-03-14T06:04:49;7.83;;;2.93;;
4055;SDS011;2043;52.184;8.690;2023-03-14T06:07:16;10.00;;;2.20;;
4055;SDS011;2043;52.184;8.690;2023-03-14T06:09:43;9.63;;;2.13;;
4055;SDS011;2043;52.184;8.690;2023-03-14T06:12:09;10.60;;;2.17;;
4055;SDS011;2043;52.184;8.690;2023-03-14T06:14:36;5.00;;;1.60;;
4055;SDS011;2043;52.184;8.690;2023-03-14T06:17:03;7.90;;;1.87;;
4055;SDS011;2043;52.184;8.690;2023-03-14T06:19:29;14.00;;;2.03;;
4055;SDS011;2043;52.184;8.690;2023-03-14T06:21:56;12.23;;;2.10;;
4055;SDS011;2043;52.184;8.690;2023-03-14T06:24:23;12.30;;;2.63;;
4055;SDS011;2043;52.184;8.690;2023-03-14T06:26:50;9.63;;;2.20;;
4055;SDS011;2043;52.184;8.690;2023-03-14T06:29:17;5.87;;;2.03;;
4055;SDS011;2043;52.184;8.690;2023-03-14T06:31:44;5.50;;;2.00;;
4055;SDS011;2043;52.184;8.690;2023-03-14T06:34:10;8.03;;;1.60;;
4055;SDS011;2043;52.184;8.690;2023-03-14T06:36:37;5.07;;;1.93;;
4055;SDS011;2043;52.184;8.690;2023-03-14T06:39:04;5.03;;;1.60;;
4055;SDS011;2043;52.184;8.690;2023-03-14T06:41:31;7.73;;;1.97;;
4055;SDS011;2043;52.184;8.690;2023-03-14T06:43:58;3.43;;;1.40;;
4055;SDS011;2043;52.184;8.690;2023-03-14T06:46:25;3.90;;;1.37;;
4055;SDS011;2043;52.184;8.690;2023-03-14T06:48:53;1.70;;;0.90;;
4055;SDS011;2043;52.184;8.690;2023-03-14T06:51:20;4.83;;;1.20;;
4055;SDS011;2043;52.184;8.690;2023-03-14T06:53:47;4.77;;;1.40;;
4055;SDS011;2043;52.184;8.690;2023-03-14T06:56:13;2.80;;;1.20;;
4055;SDS011;2043;52.184;8.690;2023-03-14T06:58:40;3.50;;;1.10;;
4055;SDS011;2043;52.184;8.690;2023-03-14T07:01:12;3.57;;;1.03;;
4055;SDS011;2043;52.184;8.690;2023-03-14T07:03:47;8.10;;;1.30;;
4055;SDS011;2043;52.184;8.690;2023-03-14T07:06:14;4.03;;;1.03;;
4055;SDS011;2043;52.184;8.690;2023-03-14T07:08:40;2.23;;;0.90;;
4055;SDS011;2043;52.184;8.690;2023-03-14T07:11:08;2.10;;;0.97;;
4055;SDS011;2043;52.184;8.690;2023-03-14T07:13:37;3.97;;;0.97;;
4055;SDS011;2043;52.184;8.690;2023-03-14T07:16:04;6.20;;;1.23;;
4055;SDS011;2043;52.184;8.690;2023-03-14T07:18:32;3.57;;;1.00;;
4055;SDS011;2043;52.184;8.690;2023-03-14T07:20:59;4.63;;;1.40;;
4055;SDS011;2043;52.184;8.690;2023-03-14T07:23:26;2.67;;;1.03;;
4055;SDS011;2043;52.184;8.690;2023-03-14T07:25:52;2.90;;;0.97;;
4055;SDS011;2043;52.184;8.690;2023-03-14T07:28:20;1.80;;;0.87;;
4055;SDS011;2043;52.184;8.690;2023-03-14T07:30:47;3.10;;;1.00;;
4055;SDS011;2043;52.184;8.690;2023-03-14T07:33:14;2.83;;;1.07;;
4055;SDS011;2043;52.184;8.690;2023-03-14T07:35:41;4.97;;;1.10;;
4055;SDS011;2043;52.184;8.690;2023-03-14T07:38:08;2.83;;;1.20;;
4055;SDS011;2043;52.184;8.690;2023-03-14T07:40:35;4.03;;;1.30;;
4055;SDS011;2043;52.184;8.690;2023-03-14T07:43:01;5.33;;;1.37;;
4055;SDS011;2043;52.184;8.690;2023-03-14T07:45:28;3.83;;;1.30;;
4055;SDS011;2043;52.184;8.690;2023-03-14T07:47:55;2.50;;;1.10;;
4055;SDS011;2043;52.184;8.690;2023-03-14T07:50:26;1.67;;;0.87;;
4055;SDS011;2043;52.184;8.690;2023-03-14T07:52:54;4.07;;;1.30;;
4055;SDS011;2043;52.184;8.690;2023-03-14T07:55:21;3.07;;;1.00;;
4055;SDS011;2043;52.184;8.690;2023-03-14T07:57:47;3.13;;;1.30;;
4055;SDS011;2043;52.184;8.690;2023-03-14T08:00:14;3.90;;;1.10;;
4055;SDS011;2043;52.184;8.690;2023-03-14T08:02:41;4.50;;;1.77;;
4055;SDS011;2043;52.184;8.690;2023-03-14T08:05:08;3.63;;;1.50;;
4055;SDS011;2043;52.184;8.690;2023-03-14T08:07:36;7.70;;;1.77;;
4055;SDS011;2043;52.184;8.690;2023-03-14T08:10:03;5.23;;;2.27;;
4055;SDS011;2043;52.184;8.690;2023-03-14T08:12:31;3.00;;;2.00;;
4055;SDS011;2043;52.184;8.690;2023-03-14T08:14:58;3.13;;;2.10;;
4055;SDS011;2043;52.184;8.690;2023-03-14T08:17:26;7.00;;;2.63;;
4055;SDS011;2043;52.184;8.690;2023-03-14T08:19:54;3.53;;;2.27;;
4055;SDS011;2043;52.184;8.690;2023-03-14T08:22:20;4.83;;;2.50;;
4055;SDS011;2043;52.184;8.690;2023-03-14T08:24:47;4.07;;;2.83;;
4055;SDS011;2043;52.184;8.690;2023-03-14T08:27:14;4.50;;;2.67;;
4055;SDS011;2043;52.184;8.690;2023-03-14T08:29:41;5.47;;;3.27;;
4055;SDS011;2043;52.184;8.690;2023-03-14T08:32:08;7.53;;;2.53;;
4055;SDS011;2043;52.184;8.690;2023-03-14T08:34:35;4.43;;;2.60;;
4055;SDS011;2043;52.184;8.690;2023-03-14T08:37:02;8.23;;;3.00;;
4055;SDS011;2043;52.184;8.690;2023-03-14T08:39:36;8.63;;;3.27;;
4055;SDS011;2043;52.184;8.690;2023-03-14T08:42:03;7.87;;;3.10;;
4055;SDS011;2043;52.184;8.690;2023-03-14T08:44:30;7.40;;;3.13;;
4055;SDS011;2043;52.184;8.690;2023-03-14T08:46:57;8.93;;;3.60;;
4055;SDS011;2043;52.184;8.690;2023-03-14T08:49:23;5.83;;;3.30;;
4055;SDS011;2043;52.184;8.690;2023-03-14T08:51:50;5.70;;;3.67;;
4055;SDS011;2043;52.184;8.690;2023-03-14T08:54:17;5.20;;;3.53;;
4055;SDS011;2043;52.184;8.690;2023-03-14T08:56:44;7.57;;;4.07;;
4055;SDS011;2043;52.184;8.690;2023-03-14T08:59:11;7.60;;;3.83;;
4055;SDS011;2043;52.184;8.690;2023-03-14T09:01:38;6.37;;;3.93;;
4055;SDS011;2043;52.184;8.690;2023-03-14T09:04:05;5.90;;;4.10;;
4055;SDS011;2043;52.184;8.690;2023-03-14T09:06:33;5.63;;;3.97;;
4055;SDS011;2043;52.184;8.690;2023-03-14T09:08:59;4.20;;;3.00;;
4055;SDS011;2043;52.184;8.690;2023-03-14T09:11:26;6.63;;;3.70;;
4055;SDS011;2043;52.184;8.690;2023-03-14T09:13:53;7.50;;;3.67;;
4055;SDS011;2043;52.184;8.690;2023-03-14T09:16:20;4.77;;;3.47;;
4055;SDS011;2043;52.184;8.690;2023-03-14T09:18:47;5.77;;;3.90;;
4055;SDS011;2043;52.184;8.690;2023-03-14T09:21:14;5.50;;;3.73;;
4055;SDS011;2043;52.184;8.690;2023-03-14T09:23:41;8.17;;;4.80;;
4055;SDS011;2043;52.184;8.690;2023-03-14T09:26:10;7.80;;;4.50;;
4055;SDS011;2043;52.184;8.690;2023-03-14T09:28:37;6.30;;;4.37;;
4055;SDS011;2043;52.184;8.690;2023-03-14T09:31:07;6.43;;;4.43;;
4055;SDS011;2043;52.184;8.690;2023-03-14T09:33:35;7.23;;;4.50;;
4055;SDS011;2043;52.184;8.690;2023-03-14T09:36:02;6.93;;;4.73;;
4055;SDS011;2043;52.184;8.690;2023-03-14T09:38:29;6.83;;;4.53;;
4055;SDS011;2043;52.184;8.690;2023-03-14T09:40:57;6.30;;;4.00;;
4055;SDS011;2043;52.184;8.690;2023-03-14T09:43:28;11.83;;;4.17;;
4055;SDS011;2043;52.184;8.690;2023-03-14T09:45:57;8.00;;;4.77;;
4055;SDS011;2043;52.184;8.690;2023-03-14T09:48:27;9.17;;;4.50;;
4055;SDS011;2043;52.184;8.690;2023-03-14T09:50:58;8.07;;;4.53;;
4055;SDS011;2043;52.184;8.690;2023-03-14T09:53:34;6.80;;;4.70;;
4055;SDS011;2043;52.184;8.690;2023-03-14T09:56:10;7.40;;;4.97;;
4055;SDS011;2043;52.184;8.690;2023-03-14T09:59:02;8.47;;;5.07;;
4055;SDS011;2043;52.184;8.690;2023-03-14T10:01:32;7.10;;;5.17;;
4055;SDS011;2043;52.184;8.690;2023-03-14T10:04:04;7.17;;;5.13;;
4055;SDS011;2043;52.184;8.690;2023-03-14T10:06:39;9.43;;;5.70;;
4055;SDS011;2043;52.184;8.690;2023-03-14T10:09:08;7.37;;;5.70;;
4055;SDS011;2043;52.184;8.690;2023-03-14T10:11:43;9.60;;;6.30;;
4055;SDS011;2043;52.184;8.690;2023-03-14T10:14:10;8.80;;;6.30;;
4055;SDS011;2043;52.184;8.690;2023-03-14T10:16:43;9.97;;;7.03;;
4055;SDS011;2043;52.184;8.690;2023-03-14T10:19:13;8.47;;;6.90;;
4055;SDS011;2043;52.184;8.690;2023-03-14T10:21:42;8.87;;;6.70;;
4055;SDS011;2043;52.184;8.690;2023-03-14T10:27:22;9.73;;;7.37;;
4055;SDS011;2043;52.184;8.690;2023-03-14T10:29:55;8.10;;;6.17;;
4055;SDS011;2043;52.184;8.690;2023-03-14T10:32:36;5.50;;;3.53;;
4055;SDS011;2043;52.184;8.690;2023-03-14T10:37:53;2.30;;;1.40;;
4055;SDS011;2043;52.184;8.690;2023-03-14T10:40:27;2.90;;;1.80;;
4055;SDS011;2043;52.184;8.690;2023-03-14T10:43:05;4.47;;;2.17;;
4055;SDS011;2043;52.184;8.690;2023-03-14T10:45:40;3.23;;;1.70;;
4055;SDS011;2043;52.184;8.690;2023-03-14T10:51:07;4.00;;;1.50;;
4055;SDS011;2043;52.184;8.690;2023-03-14T10:54:01;4.67;;;1.50;;
4055;SDS011;2043;52.184;8.690;2023-03-14T10:56:47;4.93;;;1.57;;
4055;SDS011;2043;52.184;8.690;2023-03-14T10:59:23;3.30;;;1.30;;
4055;SDS011;2043;52.184;8.690;2023-03-14T11:02:01;4.80;;;1.50;;
4055;SDS011;2043;52.184;8.690;2023-03-14T11:07:24;2.07;;;1.20;;
4055;SDS011;2043;52.184;8.690;2023-03-14T11:10:07;2.37;;;0.80;;
4055;SDS011;2043;52.184;8.690;2023-03-14T11:15:41;7.07;;;1.30;;
4055;SDS011;2043;52.184;8.690;2023-03-14T11:18:38;4.67;;;1.43;;
4055;SDS011;2043;52.184;8.690;2023-03-14T11:24:30;3.60;;;1.70;;
4055;SDS011;2043;52.184;8.690;2023-03-14T11:27:17;2.57;;;1.30;;
4055;SDS011;2043;52.184;8.690;2023-03-14T11:29:59;2.10;;;1.30;;
4055;SDS011;2043;52.184;8.690;2023-03-14T11:32:56;2.57;;;1.17;;
4055;SDS011;2043;52.184;8.690;2023-03-14T11:35:33;2.60;;;1.20;;
4055;SDS011;2043;52.184;8.690;2023-03-14T11:40:32;2.40;;;1.43;;
4055;SDS011;2043;52.184;8.690;2023-03-14T11:43:05;3.40;;;1.50;;
4055;SDS011;2043;52.184;8.690;2023-03-14T11:45:39;3.23;;;1.73;;
4055;SDS011;2043;52.184;8.690;2023-03-14T11:48:16;3.60;;;1.70;;
4055;SDS011;2043;52.184;8.690;2023-03-14T11:50:47;4.57;;;2.23;;
4055;SDS011;2043;52.184;8.690;2023-03-14T11:53:19;3.20;;;2.00;;
4055;SDS011;2043;52.184;8.690;2023-03-14T11:55:48;3.40;;;2.30;;
4055;SDS011;2043;52.184;8.690;2023-03-14T11:58:19;6.53;;;2.77;;
4055;SDS011;2043;52.184;8.690;2023-03-14T12:00:52;4.57;;;2.70;;
4055;SDS011;2043;52.184;8.690;2023-03-14T12:03:27;5.90;;;3.00;;
4055;SDS011;2043;52.184;8.690;2023-03-14T12:11:30;8.07;;;3.27;;
4055;SDS011;2043;52.184;8.690;2023-03-14T12:14:22;5.13;;;2.87;;
4055;SDS011;2043;52.184;8.690;2023-03-14T12:16:55;5.60;;;2.50;;
4055;SDS011;2043;52.184;8.690;2023-03-14T12:19:43;6.10;;;2.67;;
4055;SDS011;2043;52.184;8.690;2023-03-14T12:22:30;4.27;;;2.20;;
4055;SDS011;2043;52.184;8.690;2023-03-14T12:33:12;8.00;;;3.20;;
4055;SDS011;2043;52.184;8.690;2023-03-14T12:35:53;9.20;;;3.30;;
4055;SDS011;2043;52.184;8.690;2023-03-14T12:38:28;11.50;;;3.20;;
4055;SDS011;2043;52.184;8.690;2023-03-14T12:43:49;9.53;;;3.40;;
4055;SDS011;2043;52.184;8.690;2023-03-14T12:46:19;9.00;;;2.87;;
4055;SDS011;2043;52.184;8.690;2023-03-14T12:51:36;10.60;;;2.43;;
4055;SDS011;2043;52.184;8.690;2023-03-14T13:02:21;11.30;;;3.67;;
4055;SDS011;2043;52.184;8.690;2023-03-14T13:05:19;16.87;;;3.23;;
4055;SDS011;2043;52.184;8.690;2023-03-14T13:10:31;11.53;;;2.40;;
4055;SDS011;2043;52.184;8.690;2023-03-14T13:15:49;16.00;;;2.70;;
4055;SDS011;2043;52.184;8.690;2023-03-14T13:21:06;19.47;;;2.90;;
4055;SDS011;2043;52.184;8.690;2023-03-14T13:26:46;16.50;;;3.50;;
4055;SDS011;2043;52.184;8.690;2023-03-14T13:31:45;15.47;;;3.03;;
4055;SDS011;2043;52.184;8.690;2023-03-14T13:34:13;20.00;;;3.33;;
4055;SDS011;2043;52.184;8.690;2023-03-14T13:36:40;13.20;;;3.00;;
4055;SDS011;2043;52.184;8.690;2023-03-14T13:39:14;18.03;;;3.03;;
4055;SDS011;2043;52.184;8.690;2023-03-14T13:41:45;18.83;;;3.07;;
4055;SDS011;2043;52.184;8.690;2023-03-14T13:44:13;14.87;;;2.90;;
4055;SDS011;2043;52.184;8.690;2023-03-14T13:46:43;17.23;;;3.30;;
4055;SDS011;2043;52.184;8.690;2023-03-14T13:49:11;18.67;;;3.20;;
4055;SDS011;2043;52.184;8.690;2023-03-14T13:51:43;22.07;;;3.50;;
4055;SDS011;2043;52.184;8.690;2023-03-14T13:54:14;32.00;;;3.90;;
4055;SDS011;2043;52.184;8.690;2023-03-14T13:56:42;23.23;;;3.80;;
4055;SDS011;2043;52.184;8.690;2023-03-14T13:59:25;21.03;;;3.70;;
4055;SDS011;2043;52.184;8.690;2023-03-14T14:01:58;26.43;;;3.60;;
4055;SDS011;2043;52.184;8.690;2023-03-14T14:04:27;26.67;;;3.20;;
4055;SDS011;2043;52.184;8.690;2023-03-14T14:06:56;23.10;;;2.73;;
4055;SDS011;2043;52.184;8.690;2023-03-14T14:09:28;16.00;;;3.13;;
4055;SDS011;2043;52.184;8.690;2023-03-14T14:17:25;18.63;;;2.97;;
4055;SDS011;2043;52.184;8.690;2023-03-14T14:22:44;11.83;;;2.67;;
4055;SDS011;2043;52.184;8.690;2023-03-14T14:25:14;10.70;;;2.63;;
4055;SDS011;2043;52.184;8.690;2023-03-14T14:27:43;10.40;;;3.13;;
4055;SDS011;2043;52.184;8.690;2023-03-14T14:32:43;21.87;;;2.70;;
4055;SDS011;2043;52.184;8.690;2023-03-14T14:35:25;8.23;;;2.07;;
4055;SDS011;2043;52.184;8.690;2023-03-14T14:37:56;14.80;;;3.37;;
4055;SDS011;2043;52.184;8.690;2023-03-14T14:40:24;12.73;;;2.47;;
4055;SDS011;2043;52.184;8.690;2023-03-14T14:42:53;13.70;;;3.20;;
4055;SDS011;2043;52.184;8.690;2023-03-14T14:45:22;10.73;;;3.23;;
4055;SDS011;2043;52.184;8.690;2023-03-14T14:47:51;12.13;;;3.10;;
4055;SDS011;2043;52.184;8.690;2023-03-14T14:50:21;13.60;;;2.90;;
4055;SDS011;2043;52.184;8.690;2023-03-14T14:52:58;11.03;;;2.70;;
4055;SDS011;2043;52.184;8.690;2023-03-14T14:55:39;14.57;;;2.83;;
4055;SDS011;2043;52.184;8.690;2023-03-14T15:03:32;9.97;;;2.60;;
4055;SDS011;2043;52.184;8.690;2023-03-14T15:06:01;11.43;;;2.53;;
4055;SDS011;2043;52.184;8.690;2023-03-14T15:08:28;9.43;;;2.10;;
4055;SDS011;2043;52.184;8.690;2023-03-14T15:10:56;14.63;;;3.00;;
4055;SDS011;2043;52.184;8.690;2023-03-14T15:13:24;15.57;;;2.50;;
4055;SDS011;2043;52.184;8.690;2023-03-14T15:15:51;11.97;;;2.50;;
4055;SDS011;2043;52.184;8.690;2023-03-14T15:18:25;10.03;;;2.90;;
4055;SDS011;2043;52.184;8.690;2023-03-14T15:20:56;15.90;;;2.57;;
4055;SDS011;2043;52.184;8.690;2023-03-14T15:23:23;11.47;;;2.50;;
4055;SDS011;2043;52.184;8.690;2023-03-14T15:25:50;13.30;;;3.40;;
4055;SDS011;2043;52.184;8.690;2023-03-14T15:28:25;7.50;;;1.97;;
4055;SDS011;2043;52.184;8.690;2023-03-14T15:30:54;8.30;;;2.07;;
4055;SDS011;2043;52.184;8.690;2023-03-14T15:33:22;17.20;;;3.60;;
4055;SDS011;2043;52.184;8.690;2023-03-14T15:35:50;15.20;;;2.27;;
4055;SDS011;2043;52.184;8.690;2023-03-14T15:38:18;17.27;;;2.50;;
4055;SDS011;2043;52.184;8.690;2023-03-14T15:40:50;16.10;;;3.13;;
4055;SDS011;2043;52.184;8.690;2023-03-14T15:43:18;12.60;;;3.30;;
4055;SDS011;2043;52.184;8.690;2023-03-14T15:45:45;16.67;;;2.20;;
4055;SDS011;2043;52.184;8.690;2023-03-14T15:48:16;14.07;;;2.60;;
4055;SDS011;2043;52.184;8.690;2023-03-14T15:50:45;9.50;;;2.20;;
4055;SDS011;2043;52.184;8.690;2023-03-14T15:53:12;8.83;;;1.93;;
4055;SDS011;2043;52.184;8.690;2023-03-14T15:55:38;15.30;;;2.40;;
4055;SDS011;2043;52.184;8.690;2023-03-14T15:58:05;10.23;;;2.10;;
4055;SDS011;2043;52.184;8.690;2023-03-14T16:00:32;13.80;;;3.20;;
4055;SDS011;2043;52.184;8.690;2023-03-14T16:03:00;8.90;;;1.90;;
4055;SDS011;2043;52.184;8.690;2023-03-14T16:05:27;9.87;;;2.00;;
4055;SDS011;2043;52.184;8.690;2023-03-14T16:07:54;13.80;;;2.83;;
4055;SDS011;2043;52.184;8.690;2023-03-14T16:10:21;11.23;;;2.03;;
4055;SDS011;2043;52.184;8.690;2023-03-14T16:12:48;11.97;;;2.90;;
4055;SDS011;2043;52.184;8.690;2023-03-14T16:15:15;11.97;;;2.13;;
4055;SDS011;2043;52.184;8.690;2023-03-14T16:17:42;14.33;;;2.90;;
4055;SDS011;2043;52.184;8.690;2023-03-14T16:20:10;13.53;;;2.47;;
4055;SDS011;2043;52.184;8.690;2023-03-14T16:22:38;7.63;;;2.03;;
4055;SDS011;2043;52.184;8.690;2023-03-14T16:25:05;9.13;;;2.30;;
4055;SDS011;2043;52.184;8.690;2023-03-14T16:27:33;14.50;;;2.63;;
4055;SDS011;2043;52.184;8.690;2023-03-14T16:29:59;12.13;;;2.67;;
4055;SDS011;2043;52.184;8.690;2023-03-14T16:32:26;10.17;;;2.40;;
4055;SDS011;2043;52.184;8.690;2023-03-14T16:34:54;16.47;;;2.87;;
4055;SDS011;2043;52.184;8.690;2023-03-14T16:37:22;11.43;;;2.60;;
4055;SDS011;2043;52.184;8.690;2023-03-14T16:39:50;19.20;;;3.07;;
4055;SDS011;2043;52.184;8.690;2023-03-14T16:42:37;19.00;;;2.40;;
4055;SDS011;2043;52.184;8.690;2023-03-14T16:45:20;8.70;;;2.53;;
4055;SDS011;2043;52.184;8.690;2023-03-14T16:47:47;7.80;;;2.23;;
4055;SDS011;2043;52.184;8.690;2023-03-14T16:50:13;9.77;;;2.13;;
4055;SDS011;2043;52.184;8.690;2023-03-14T16:52:41;15.47;;;2.27;;
4055;SDS011;2043;52.184;8.690;2023-03-14T16:55:07;8.97;;;2.03;;
4055;SDS011;2043;52.184;8.690;2023-03-14T16:57:34;7.60;;;2.20;;